sensor_id;sensor_type;location;lat;lon;timestamp;pressure;altitude;pressure_sealevel;temperature;humidity
21728;BME280;11026;50.560;17.852;2024-02-16T00:01:20;99957.50;;;6.70;100.00
21728;BME280;11026;50.560;17.852;2024-02-16T00:03:47;99960.13;;;6.69;100.00
21728;BME280;11026;50.560;17.852;2024-02-16T00:06:14;99961.09;;;6.66;100.00
21728;BME280;11026;50.560;17.852;2024-02-16T00:08:43;99967.31;;;6.62;100.00
21728;BME280;11026;50.560;17.852;2024-02-16T00:11:10;99962.03;;;6.62;100.00
21728;BME280;11026;50.560;17.852;2024-02-16T00:13:37;99958.72;;;6.52;100.00
21728;BME280;11026;50.560;17.852;2024-02-16T00:16:06;99956.16;;;6.49;100.00
21728;BME280;11026;50.560;17.852;2024-02-16T00:18:34;99955.13;;;6.58;100.00
21728;BME280;11026;50.560;17.852;2024-02-16T00:21:02;99953.34;;;6.58;100.00
21728;BME280;11026;50.560;17.852;2024-02-16T00:23:30;99951.63;;;6.57;100.00
21728;BME280;11026;50.560;17.852;2024-02-16T00:25:58;99941.06;;;6.59;100.00
21728;BME280;11026;50.560;17.852;2024-02-16T00:28:28;99946.97;;;6.70;100.00
21728;BME280;11026;50.560;17.852;2024-02-16T00:30:55;99939.09;;;6.70;100.00
21728;BME280;11026;50.560;17.852;2024-02-16T00:33:23;99942.50;;;6.74;100.00
21728;BME280;11026;50.560;17.852;2024-02-16T00:35:50;99930.28;;;6.71;100.00
21728;BME280;11026;50.560;17.852;2024-02-16T00:38:21;99930.41;;;6.65;100.00
21728;BME280;11026;50.560;17.852;2024-02-16T00:40:50;99934.81;;;6.64;100.00
21728;BME280;11026;50.560;17.852;2024-02-16T00:43:17;99926.81;;;6.71;100.00
21728;BME280;11026;50.560;17.852;2024-02-16T00:45:45;99928.41;;;6.78;100.00
21728;BME280;11026;50.560;17.852;2024-02-16T00:48:12;99928.53;;;6.72;100.00
21728;BME280;11026;50.560;17.852;2024-02-16T00:50:40;99934.47;;;6.80;100.00
21728;BME280;11026;50.560;17.852;2024-02-16T00:53:10;99938.00;;;6.79;100.00
21728;BME280;11026;50.560;17.852;2024-02-16T00:55:38;99932.69;;;6.82;100.00
21728;BME280;11026;50.560;17.852;2024-02-16T00:58:09;99928.22;;;6.85;100.00
21728;BME280;11026;50.560;17.852;2024-02-16T01:00:36;99929.97;;;6.85;100.00
21728;BME280;11026;50.560;17.852;2024-02-16T01:03:04;99929.09;;;6.86;100.00
21728;BME280;11026;50.560;17.852;2024-02-16T01:05:32;99929.91;;;6.89;100.00
21728;BME280;11026;50.560;17.852;2024-02-16T01:07:59;99930.78;;;6.88;100.00
21728;BME280;11026;50.560;17.852;2024-02-16T01:10:30;99921.97;;;6.91;100.00
21728;BME280;11026;50.560;17.852;2024-02-16T01:12:57;99924.47;;;6.97;100.00
21728;BME280;11026;50.560;17.852;2024-02-16T01:15:25;99918.41;;;6.92;100.00
21728;BME280;11026;50.560;17.852;2024-02-16T01:17:53;99911.66;;;6.82;100.00
21728;BME280;11026;50.560;17.852;2024-02-16T01:20:20;99915.94;;;6.86;100.00
21728;BME280;11026;50.560;17.852;2024-02-16T01:22:49;99906.50;;;6.77;100.00
21728;BME280;11026;50.560;17.852;2024-02-16T01:25:16;99905.66;;;6.75;100.00
21728;BME280;11026;50.560;17.852;2024-02-16T01:27:44;99898.75;;;6.71;100.00
21728;BME280;11026;50.560;17.852;2024-02-16T01:30:11;99896.97;;;6.72;100.00
21728;BME280;11026;50.560;17.852;2024-02-16T01:32:39;99904.75;;;6.78;100.00
21728;BME280;11026;50.560;17.852;2024-02-16T01:35:08;99896.75;;;6.81;100.00
21728;BME280;11026;50.560;17.852;2024-02-16T01:37:37;99899.59;;;6.73;100.00
21728;BME280;11026;50.560;17.852;2024-02-16T01:40:05;99903.06;;;6.74;100.00
21728;BME280;11026;50.560;17.852;2024-02-16T01:42:33;99908.19;;;6.80;100.00
21728;BME280;11026;50.560;17.852;2024-02-16T01:45:26;99910.97;;;6.74;100.00
21728;BME280;11026;50.560;17.852;2024-02-16T01:47:55;99910.00;;;6.78;100.00
21728;BME280;11026;50.560;17.852;2024-02-16T01:50:24;99911.66;;;6.82;100.00
21728;BME280;11026;50.560;17.852;2024-02-16T01:52:53;99908.34;;;6.74;100.00
21728;BME280;11026;50.560;17.852;2024-02-16T01:55:21;99905.56;;;6.80;100.00
21728;BME280;11026;50.560;17.852;2024-02-16T01:57:48;99910.81;;;6.80;100.00
21728;BME280;11026;50.560;17.852;2024-02-16T02:00:17;99910.88;;;6.77;100.00
21728;BME280;11026;50.560;17.852;2024-02-16T02:02:47;99909.38;;;6.67;100.00
21728;BME280;11026;50.560;17.852;2024-02-16T02:05:15;99916.31;;;6.69;100.00
21728;BME280;11026;50.560;17.852;2024-02-16T02:07:44;99924.44;;;6.58;100.00
21728;BME280;11026;50.560;17.852;2024-02-16T02:10:12;99924.50;;;6.55;100.00
21728;BME280;11026;50.560;17.852;2024-02-16T02:12:41;99918.91;;;6.71;100.00
21728;BME280;11026;50.560;17.852;2024-02-16T02:15:13;99918.13;;;6.67;100.00
21728;BME280;11026;50.560;17.852;2024-02-16T02:17:40;99922.34;;;6.73;100.00
21728;BME280;11026;50.560;17.852;2024-02-16T02:20:12;99919.84;;;6.68;100.00
21728;BME280;11026;50.560;17.852;2024-02-16T02:22:39;99921.91;;;6.54;100.00
21728;BME280;11026;50.560;17.852;2024-02-16T02:25:07;99922.94;;;6.45;100.00
21728;BME280;11026;50.560;17.852;2024-02-16T02:27:37;99919.72;;;6.34;100.00
21728;BME280;11026;50.560;17.852;2024-02-16T02:30:08;99916.44;;;6.23;100.00
21728;BME280;11026;50.560;17.852;2024-02-16T02:32:36;99913.91;;;6.18;100.00
21728;BME280;11026;50.560;17.852;2024-02-16T02:35:04;99910.38;;;6.18;100.00
21728;BME280;11026;50.560;17.852;2024-02-16T02:37:32;99908.00;;;6.05;100.00
21728;BME280;11026;50.560;17.852;2024-02-16T02:39:59;99914.28;;;5.98;100.00
21728;BME280;11026;50.560;17.852;2024-02-16T02:42:29;99914.53;;;5.83;100.00
21728;BME280;11026;50.560;17.852;2024-02-16T02:44:57;99910.09;;;5.85;100.00
21728;BME280;11026;50.560;17.852;2024-02-16T02:47:26;99907.44;;;5.88;100.00
21728;BME280;11026;50.560;17.852;2024-02-16T02:49:53;99902.31;;;5.80;100.00
21728;BME280;11026;50.560;17.852;2024-02-16T02:52:21;99907.72;;;5.73;100.00
21728;BME280;11026;50.560;17.852;2024-02-16T02:54:48;99903.13;;;5.84;100.00
21728;BME280;11026;50.560;17.852;2024-02-16T02:57:19;99912.97;;;5.73;100.00
21728;BME280;11026;50.560;17.852;2024-02-16T02:59:46;99914.38;;;5.92;100.00
21728;BME280;11026;50.560;17.852;2024-02-16T03:02:14;99905.50;;;5.98;100.00
21728;BME280;11026;50.560;17.852;2024-02-16T03:04:42;99912.06;;;6.22;100.00
21728;BME280;11026;50.560;17.852;2024-02-16T03:07:09;99911.13;;;6.26;100.00
21728;BME280;11026;50.560;17.852;2024-02-16T03:09:37;99913.09;;;6.14;100.00
21728;BME280;11026;50.560;17.852;2024-02-16T03:12:05;99900.06;;;6.10;100.00
21728;BME280;11026;50.560;17.852;2024-02-16T03:14:32;99910.00;;;5.93;100.00
21728;BME280;11026;50.560;17.852;2024-02-16T03:17:02;99903.97;;;5.86;100.00
21728;BME280;11026;50.560;17.852;2024-02-16T03:19:31;99911.91;;;5.83;100.00
21728;BME280;11026;50.560;17.852;2024-02-16T03:22:02;99907.38;;;5.89;100.00
21728;BME280;11026;50.560;17.852;2024-02-16T03:24:33;99911.19;;;5.75;100.00
21728;BME280;11026;50.560;17.852;2024-02-16T03:27:01;99900.38;;;5.91;100.00
21728;BME280;11026;50.560;17.852;2024-02-16T03:29:28;99905.00;;;5.79;100.00
21728;BME280;11026;50.560;17.852;2024-02-16T03:31:57;99905.00;;;5.79;100.00
21728;BME280;11026;50.560;17.852;2024-02-16T03:34:29;99905.22;;;5.66;100.00
21728;BME280;11026;50.560;17.852;2024-02-16T03:36:57;99908.94;;;5.53;100.00
21728;BME280;11026;50.560;17.852;2024-02-16T03:39:26;99900.25;;;5.51;100.00
21728;BME280;11026;50.560;17.852;2024-02-16T03:41:52;99901.19;;;5.47;100.00
21728;BME280;11026;50.560;17.852;2024-02-16T03:44:22;99900.09;;;5.57;100.00
21728;BME280;11026;50.560;17.852;2024-02-16T03:46:49;99900.78;;;5.68;100.00
21728;BME280;11026;50.560;17.852;2024-02-16T03:49:22;99901.69;;;5.66;100.00
21728;BME280;11026;50.560;17.852;2024-02-16T03:51:48;99901.09;;;5.52;100.00
21728;BME280;11026;50.560;17.852;2024-02-16T03:54:15;99889.75;;;5.51;100.00
21728;BME280;11026;50.560;17.852;2024-02-16T03:56:43;99900.16;;;5.54;100.00
21728;BME280;11026;50.560;17.852;2024-02-16T03:59:12;99895.56;;;5.67;100.00
21728;BME280;11026;50.560;17.852;2024-02-16T04:01:39;99892.81;;;5.73;100.00
21728;BME280;11026;50.560;17.852;2024-02-16T04:04:08;99899.03;;;5.69;100.00
21728;BME280;11026;50.560;17.852;2024-02-16T04:06:36;99897.34;;;5.65;100.00
21728;BME280;11026;50.560;17.852;2024-02-16T04:09:04;99896.66;;;5.55;100.00
21728;BME280;11026;50.560;17.852;2024-02-16T04:11:35;99895.59;;;5.65;100.00
21728;BME280;11026;50.560;17.852;2024-02-16T04:14:02;99896.44;;;5.67;100.00
21728;BME280;11026;50.560;17.852;2024-02-16T04:16:29;99893.13;;;5.56;100.00
21728;BME280;11026;50.560;17.852;2024-02-16T04:18:58;99891.28;;;5.61;100.00
21728;BME280;11026;50.560;17.852;2024-02-16T04:21:25;99883.28;;;5.69;100.00
21728;BME280;11026;50.560;17.852;2024-02-16T04:23:53;99885.81;;;5.74;100.00
21728;BME280;11026;50.560;17.852;2024-02-16T04:26:21;99889.19;;;5.80;100.00
21728;BME280;11026;50.560;17.852;2024-02-16T04:28:48;99884.84;;;5.79;100.00
21728;BME280;11026;50.560;17.852;2024-02-16T04:31:16;99881.13;;;5.89;100.00
21728;BME280;11026;50.560;17.852;2024-02-16T04:33:45;99882.81;;;5.95;100.00
21728;BME280;11026;50.560;17.852;2024-02-16T04:36:13;99881.19;;;5.88;100.00
21728;BME280;11026;50.560;17.852;2024-02-16T04:38:40;99881.22;;;5.86;100.00
21728;BME280;11026;50.560;17.852;2024-02-16T04:41:08;99876.06;;;5.80;100.00
21728;BME280;11026;50.560;17.852;2024-02-16T04:43:35;99871.63;;;5.84;100.00
21728;BME280;11026;50.560;17.852;2024-02-16T04:46:02;99875.97;;;5.86;100.00
21728;BME280;11026;50.560;17.852;2024-02-16T04:48:31;99868.34;;;5.73;100.00
21728;BME280;11026;50.560;17.852;2024-02-16T04:50:59;99874.41;;;5.76;100.00
21728;BME280;11026;50.560;17.852;2024-02-16T04:53:26;99864.72;;;5.80;100.00
21728;BME280;11026;50.560;17.852;2024-02-16T04:55:53;99866.47;;;5.79;100.00
21728;BME280;11026;50.560;17.852;2024-02-16T04:58:24;99866.38;;;5.84;100.00
21728;BME280;11026;50.560;17.852;2024-02-16T05:00:51;99870.00;;;5.78;100.00
21728;BME280;11026;50.560;17.852;2024-02-16T05:03:19;99872.53;;;5.83;100.00
21728;BME280;11026;50.560;17.852;2024-02-16T05:05:47;99861.94;;;5.86;100.00
21728;BME280;11026;50.560;17.852;2024-02-16T05:08:14;99871.53;;;5.90;100.00
21728;BME280;11026;50.560;17.852;2024-02-16T05:10:41;99877.63;;;5.92;100.00
21728;BME280;11026;50.560;17.852;2024-02-16T05:13:09;99875.88;;;5.91;100.00
21728;BME280;11026;50.560;17.852;2024-02-16T05:15:38;99867.13;;;5.90;100.00
21728;BME280;11026;50.560;17.852;2024-02-16T05:18:08;99868.00;;;5.91;100.00
21728;BME280;11026;50.560;17.852;2024-02-16T05:20:38;99861.91;;;5.89;100.00
21728;BME280;11026;50.560;17.852;2024-02-16T05:23:05;99862.75;;;5.91;100.00
21728;BME280;11026;50.560;17.852;2024-02-16T05:25:32;99863.69;;;5.87;100.00
21728;BME280;11026;50.560;17.852;2024-02-16T05:28:00;99868.78;;;5.96;100.00
21728;BME280;11026;50.560;17.852;2024-02-16T05:30:28;99869.66;;;5.97;100.00
21728;BME280;11026;50.560;17.852;2024-02-16T05:32:55;99867.09;;;5.94;100.00
21728;BME280;11026;50.560;17.852;2024-02-16T05:35:26;99872.13;;;6.04;100.00
21728;BME280;11026;50.560;17.852;2024-02-16T05:37:55;99873.00;;;6.05;100.00
21728;BME280;11026;50.560;17.852;2024-02-16T05:40:24;99870.50;;;5.97;100.00
21728;BME280;11026;50.560;17.852;2024-02-16T05:42:56;99872.19;;;6.01;100.00
21728;BME280;11026;50.560;17.852;2024-02-16T05:45:27;99862.63;;;5.97;100.00
21728;BME280;11026;50.560;17.852;2024-02-16T05:47:54;99862.72;;;5.94;100.00
21728;BME280;11026;50.560;17.852;2024-02-16T05:50:21;99866.22;;;5.93;100.00
21728;BME280;11026;50.560;17.852;2024-02-16T05:52:50;99866.06;;;6.02;100.00
21728;BME280;11026;50.560;17.852;2024-02-16T05:55:18;99866.94;;;6.01;100.00
21728;BME280;11026;50.560;17.852;2024-02-16T05:57:46;99860.88;;;5.99;100.00
21728;BME280;11026;50.560;17.852;2024-02-16T06:00:14;99872.13;;;6.06;100.00
21728;BME280;11026;50.560;17.852;2024-02-16T06:02:43;99871.97;;;6.12;100.00
21728;BME280;11026;50.560;17.852;2024-02-16T06:05:10;99862.34;;;6.12;100.00
21728;BME280;11026;50.560;17.852;2024-02-16T06:07:39;99880.63;;;6.17;100.00
21728;BME280;11026;50.560;17.852;2024-02-16T06:10:08;99869.09;;;6.26;100.00
21728;BME280;11026;50.560;17.852;2024-02-16T06:12:39;99868.13;;;6.30;100.00
21728;BME280;11026;50.560;17.852;2024-02-16T06:15:07;99870.66;;;6.33;100.00
21728;BME280;11026;50.560;17.852;2024-02-16T06:17:35;99872.25;;;6.40;100.00
21728;BME280;11026;50.560;17.852;2024-02-16T06:20:06;99887.06;;;6.46;100.00
21728;BME280;11026;50.560;17.852;2024-02-16T06:22:37;99886.03;;;6.51;100.00
21728;BME280;11026;50.560;17.852;2024-02-16T06:25:04;99885.97;;;6.54;100.00
21728;BME280;11026;50.560;17.852;2024-02-16T06:27:37;99878.97;;;6.55;100.00
21728;BME280;11026;50.560;17.852;2024-02-16T06:30:05;99889.38;;;6.59;100.00
21728;BME280;11026;50.560;17.852;2024-02-16T06:32:34;99876.06;;;6.67;100.00
21728;BME280;11026;50.560;17.852;2024-02-16T06:35:01;99882.09;;;6.71;100.00
21728;BME280;11026;50.560;17.852;2024-02-16T06:37:33;99878.63;;;6.69;100.00
21728;BME280;11026;50.560;17.852;2024-02-16T06:40:00;99890.81;;;6.73;100.00
21728;BME280;11026;50.560;17.852;2024-02-16T06:42:27;99879.41;;;6.74;100.00
21728;BME280;11026;50.560;17.852;2024-02-16T06:44:55;99881.88;;;6.80;100.00
21728;BME280;11026;50.560;17.852;2024-02-16T06:47:23;99885.19;;;6.88;100.00
21728;BME280;11026;50.560;17.852;2024-02-16T06:49:53;99877.25;;;6.91;100.00
21728;BME280;11026;50.560;17.852;2024-02-16T06:52:21;99879.66;;;7.00;100.00
21728;BME280;11026;50.560;17.852;2024-02-16T06:54:52;99883.88;;;7.07;100.00
21728;BME280;11026;50.560;17.852;2024-02-16T06:57:20;99876.88;;;7.06;100.00
21728;BME280;11026;50.560;17.852;2024-02-16T06:59:47;99874.03;;;7.15;100.00
21728;BME280;11026;50.560;17.852;2024-02-16T07:02:14;99887.72;;;7.28;100.00
21728;BME280;11026;50.560;17.852;2024-02-16T07:04:42;99881.34;;;7.38;100.00
21728;BME280;11026;50.560;17.852;2024-02-16T07:07:09;99890.84;;;7.44;100.00
21728;BME280;11026;50.560;17.852;2024-02-16T07:09:39;99885.38;;;7.53;100.00
21728;BME280;11026;50.560;17.852;2024-02-16T07:12:06;99881.69;;;7.60;100.00
21728;BME280;11026;50.560;17.852;2024-02-16T07:14:34;99890.13;;;7.72;100.00
21728;BME280;11026;50.560;17.852;2024-02-16T07:17:02;99886.44;;;7.79;100.00
21728;BME280;11026;50.560;17.852;2024-02-16T07:19:29;99880.81;;;7.91;100.00
21728;BME280;11026;50.560;17.852;2024-02-16T07:21:56;99892.00;;;7.99;100.00
21728;BME280;11026;50.560;17.852;2024-02-16T07:24:25;99886.53;;;8.07;100.00
21728;BME280;11026;50.560;17.852;2024-02-16T07:26:54;99885.50;;;8.12;100.00
21728;BME280;11026;50.560;17.852;2024-02-16T07:29:22;99889.72;;;8.18;100.00
21728;BME280;11026;50.560;17.852;2024-02-16T07:31:49;99887.78;;;8.25;100.00
21728;BME280;11026;50.560;17.852;2024-02-16T07:34:17;99884.03;;;8.33;100.00
21728;BME280;11026;50.560;17.852;2024-02-16T07:36:45;99876.84;;;8.40;100.00
21728;BME280;11026;50.560;17.852;2024-02-16T07:39:13;99883.53;;;8.52;100.00
21728;BME280;11026;50.560;17.852;2024-02-16T07:41:40;99880.81;;;8.53;100.00
21728;BME280;11026;50.560;17.852;2024-02-16T07:44:08;99883.16;;;8.64;100.00
21728;BME280;11026;50.560;17.852;2024-02-16T07:46:40;99879.44;;;8.70;100.00
21728;BME280;11026;50.560;17.852;2024-02-16T07:49:07;99876.63;;;8.76;100.00
21728;BME280;11026;50.560;17.852;2024-02-16T07:51:40;99876.34;;;8.85;100.00
21728;BME280;11026;50.560;17.852;2024-02-16T07:54:07;99876.03;;;8.94;99.24
21728;BME280;11026;50.560;17.852;2024-02-16T07:56:35;99880.22;;;9.01;97.42
21728;BME280;11026;50.560;17.852;2024-02-16T07:59:04;99875.56;;;9.09;97.31
21728;BME280;11026;50.560;17.852;2024-02-16T08:01:31;99873.75;;;9.11;95.79
21728;BME280;11026;50.560;17.852;2024-02-16T08:03:58;99887.53;;;9.20;95.18
21728;BME280;11026;50.560;17.852;2024-02-16T08:06:29;99896.00;;;9.29;94.76
21728;BME280;11026;50.560;17.852;2024-02-16T08:09:00;99884.50;;;9.32;93.11
21728;BME280;11026;50.560;17.852;2024-02-16T08:11:27;99882.66;;;9.34;92.34
21728;BME280;11026;50.560;17.852;2024-02-16T08:13:55;99886.03;;;9.39;92.04
21728;BME280;11026;50.560;17.852;2024-02-16T08:16:27;99893.88;;;9.41;91.70
21728;BME280;11026;50.560;17.852;2024-02-16T08:18:54;99890.91;;;9.51;92.20
21728;BME280;11026;50.560;17.852;2024-02-16T08:21:21;99889.88;;;9.55;91.03
21728;BME280;11026;50.560;17.852;2024-02-16T08:23:48;99888.44;;;9.72;90.75
21728;BME280;11026;50.560;17.852;2024-02-16T08:26:17;99895.41;;;9.74;89.43
21728;BME280;11026;50.560;17.852;2024-02-16T08:28:47;99908.63;;;9.73;89.12
21728;BME280;11026;50.560;17.852;2024-02-16T08:31:17;99889.22;;;9.74;88.65
21728;BME280;11026;50.560;17.852;2024-02-16T08:33:45;99903.91;;;9.82;88.44
21728;BME280;11026;50.560;17.852;2024-02-16T08:36:16;99899.38;;;9.86;87.45
21728;BME280;11026;50.560;17.852;2024-02-16T08:38:44;99906.88;;;9.98;88.31
21728;BME280;11026;50.560;17.852;2024-02-16T08:41:13;99897.47;;;10.15;87.46
21728;BME280;11026;50.560;17.852;2024-02-16T08:43:41;99899.13;;;10.17;86.52
21728;BME280;11026;50.560;17.852;2024-02-16T08:46:08;99908.38;;;10.30;86.39
21728;BME280;11026;50.560;17.852;2024-02-16T08:48:36;99903.72;;;10.37;85.44
21728;BME280;11026;50.560;17.852;2024-02-16T08:51:04;99903.50;;;10.43;83.98
21728;BME280;11026;50.560;17.852;2024-02-16T08:53:31;99908.50;;;10.51;83.78
21728;BME280;11026;50.560;17.852;2024-02-16T08:55:58;99894.72;;;10.65;82.72
21728;BME280;11026;50.560;17.852;2024-02-16T08:58:25;99902.03;;;10.81;81.85
21728;BME280;11026;50.560;17.852;2024-02-16T09:00:52;99900.94;;;10.87;80.66
21728;BME280;11026;50.560;17.852;2024-02-16T09:03:19;99892.97;;;10.87;78.94
21728;BME280;11026;50.560;17.852;2024-02-16T09:05:48;99896.25;;;10.94;78.83
21728;BME280;11026;50.560;17.852;2024-02-16T09:08:15;99897.69;;;11.02;78.47
21728;BME280;11026;50.560;17.852;2024-02-16T09:10:42;99910.19;;;11.21;77.85
21728;BME280;11026;50.560;17.852;2024-02-16T09:13:09;99903.19;;;11.40;75.76
21728;BME280;11026;50.560;17.852;2024-02-16T09:15:36;99890.13;;;11.78;73.48
21728;BME280;11026;50.560;17.852;2024-02-16T09:18:06;99897.50;;;12.12;70.46
21728;BME280;11026;50.560;17.852;2024-02-16T09:20:33;99899.25;;;12.70;68.29
21728;BME280;11026;50.560;17.852;2024-02-16T09:22:59;99893.69;;;13.12;66.86
21728;BME280;11026;50.560;17.852;2024-02-16T09:25:29;99897.72;;;13.74;63.97
21728;BME280;11026;50.560;17.852;2024-02-16T09:27:56;99903.44;;;13.67;63.81
21728;BME280;11026;50.560;17.852;2024-02-16T09:30:24;99908.56;;;13.87;62.37
21728;BME280;11026;50.560;17.852;2024-02-16T09:32:53;99910.22;;;13.90;60.83
21728;BME280;11026;50.560;17.852;2024-02-16T09:35:21;99908.25;;;14.11;60.63
21728;BME280;11026;50.560;17.852;2024-02-16T09:37:49;99904.59;;;14.29;60.06
21728;BME280;11026;50.560;17.852;2024-02-16T09:40:16;99904.34;;;14.00;61.01
21728;BME280;11026;50.560;17.852;2024-02-16T09:42:48;99902.31;;;14.39;60.50
21728;BME280;11026;50.560;17.852;2024-02-16T09:45:16;99901.44;;;13.88;60.17
21728;BME280;11026;50.560;17.852;2024-02-16T09:47:45;99902.41;;;14.37;59.33
21728;BME280;11026;50.560;17.852;2024-02-16T09:50:29;99906.44;;;15.09;58.02
21728;BME280;11026;50.560;17.852;2024-02-16T09:52:57;99921.25;;;14.33;57.52
21728;BME280;11026;50.560;17.852;2024-02-16T09:55:25;99913.19;;;14.51;58.38
21728;BME280;11026;50.560;17.852;2024-02-16T09:58:00;99915.97;;;14.48;59.01
21728;BME280;11026;50.560;17.852;2024-02-16T10:00:27;99911.38;;;14.01;59.19
21728;BME280;11026;50.560;17.852;2024-02-16T10:02:55;99909.78;;;14.48;59.92
21728;BME280;11026;50.560;17.852;2024-02-16T10:05:22;99908.00;;;14.15;59.32
21728;BME280;11026;50.560;17.852;2024-02-16T10:07:49;99897.84;;;14.39;59.12
21728;BME280;11026;50.560;17.852;2024-02-16T10:10:28;99906.34;;;14.63;57.87
21728;BME280;11026;50.560;17.852;2024-02-16T10:15:32;99901.28;;;14.74;57.42
21728;BME280;11026;50.560;17.852;2024-02-16T10:18:00;99894.72;;;15.12;57.40
21728;BME280;11026;50.560;17.852;2024-02-16T10:20:32;99894.56;;;15.15;57.33
21728;BME280;11026;50.560;17.852;2024-02-16T10:23:13;99899.06;;;14.98;57.05
21728;BME280;11026;50.560;17.852;2024-02-16T10:25:41;99874.09;;;15.15;56.54
21728;BME280;11026;50.560;17.852;2024-02-16T10:28:09;99899.06;;;14.98;57.18
21728;BME280;11026;50.560;17.852;2024-02-16T10:30:42;99893.03;;;14.79;56.61
21728;BME280;11026;50.560;17.852;2024-02-16T10:33:12;99889.16;;;15.00;57.75
21728;BME280;11026;50.560;17.852;2024-02-16T10:35:41;99882.94;;;15.32;56.07
21728;BME280;11026;50.560;17.852;2024-02-16T10:38:10;99869.84;;;15.13;55.22
21728;BME280;11026;50.560;17.852;2024-02-16T10:40:40;99870.31;;;15.19;56.04
21728;BME280;11026;50.560;17.852;2024-02-16T10:43:09;99882.38;;;15.57;54.66
21728;BME280;11026;50.560;17.852;2024-02-16T10:45:37;99871.53;;;15.44;55.41
21728;BME280;11026;50.560;17.852;2024-02-16T10:48:07;99895.09;;;15.06;55.18
21728;BME280;11026;50.560;17.852;2024-02-16T10:50:37;99880.56;;;14.64;55.64
21728;BME280;11026;50.560;17.852;2024-02-16T10:53:17;99862.75;;;15.12;55.98
21728;BME280;11026;50.560;17.852;2024-02-16T10:55:46;99874.38;;;15.57;53.71
21728;BME280;11026;50.560;17.852;2024-02-16T10:58:13;99856.78;;;15.38;54.89
21728;BME280;11026;50.560;17.852;2024-02-16T11:00:51;99856.38;;;15.30;54.88
21728;BME280;11026;50.560;17.852;2024-02-16T11:03:22;99853.63;;;15.16;55.16
21728;BME280;11026;50.560;17.852;2024-02-16T11:05:55;99846.97;;;15.09;56.21
21728;BME280;11026;50.560;17.852;2024-02-16T11:08:25;99843.56;;;15.67;54.72
21728;BME280;11026;50.560;17.852;2024-02-16T11:10:59;99833.56;;;15.10;54.96
21728;BME280;11026;50.560;17.852;2024-02-16T11:13:32;99843.81;;;15.62;54.90
21728;BME280;11026;50.560;17.852;2024-02-16T11:16:07;99832.56;;;16.16;53.86
21728;BME280;11026;50.560;17.852;2024-02-16T11:18:39;99835.78;;;16.07;52.44
21728;BME280;11026;50.560;17.852;2024-02-16T11:21:11;99824.97;;;16.80;52.90
21728;BME280;11026;50.560;17.852;2024-02-16T11:23:40;99829.28;;;16.54;51.95
21728;BME280;11026;50.560;17.852;2024-02-16T11:26:11;99833.69;;;15.83;52.26
21728;BME280;11026;50.560;17.852;2024-02-16T11:28:41;99828.81;;;15.45;53.73
21728;BME280;11026;50.560;17.852;2024-02-16T11:31:09;99824.16;;;15.93;53.84
21728;BME280;11026;50.560;17.852;2024-02-16T11:33:42;99817.03;;;16.37;52.80
21728;BME280;11026;50.560;17.852;2024-02-16T11:36:10;99810.22;;;16.60;52.27
21728;BME280;11026;50.560;17.852;2024-02-16T11:38:39;99811.50;;;16.26;52.38
21728;BME280;11026;50.560;17.852;2024-02-16T11:41:07;99817.69;;;15.97;52.65
21728;BME280;11026;50.560;17.852;2024-02-16T11:43:35;99816.06;;;16.09;52.54
21728;BME280;11026;50.560;17.852;2024-02-16T11:46:16;99823.66;;;16.58;52.03
21728;BME280;11026;50.560;17.852;2024-02-16T11:48:44;99812.81;;;15.90;52.68
21728;BME280;11026;50.560;17.852;2024-02-16T11:51:17;99827.41;;;16.27;52.32
21728;BME280;11026;50.560;17.852;2024-02-16T11:53:55;99823.59;;;16.31;52.12
21728;BME280;11026;50.560;17.852;2024-02-16T11:56:26;99807.78;;;15.99;52.55
21728;BME280;11026;50.560;17.852;2024-02-16T11:58:54;99796.72;;;15.77;52.60
21728;BME280;11026;50.560;17.852;2024-02-16T12:01:22;99805.47;;;15.65;53.13
21728;BME280;11026;50.560;17.852;2024-02-16T12:03:49;99773.81;;;15.44;53.21
21728;BME280;11026;50.560;17.852;2024-02-16T12:06:21;99806.47;;;15.62;53.21
21728;BME280;11026;50.560;17.852;2024-02-16T12:08:49;99798.94;;;15.85;52.99
21728;BME280;11026;50.560;17.852;2024-02-16T12:11:23;99799.50;;;16.04;53.42
21728;BME280;11026;50.560;17.852;2024-02-16T12:13:50;99806.47;;;15.92;52.40
21728;BME280;11026;50.560;17.852;2024-02-16T12:16:19;99791.13;;;15.52;53.60
21728;BME280;11026;50.560;17.852;2024-02-16T12:18:48;99797.56;;;15.78;53.74
21728;BME280;11026;50.560;17.852;2024-02-16T12:21:17;99797.47;;;16.22;52.90
21728;BME280;11026;50.560;17.852;2024-02-16T12:23:47;99792.63;;;16.70;51.20
21728;BME280;11026;50.560;17.852;2024-02-16T12:26:15;99791.09;;;16.66;51.85
21728;BME280;11026;50.560;17.852;2024-02-16T12:28:44;99803.31;;;17.24;51.50
21728;BME280;11026;50.560;17.852;2024-02-16T12:31:18;99795.88;;;17.02;51.42
21728;BME280;11026;50.560;17.852;2024-02-16T12:33:45;99785.22;;;16.46;51.43
21728;BME280;11026;50.560;17.852;2024-02-16T12:36:13;99767.34;;;15.63;52.75
21728;BME280;11026;50.560;17.852;2024-02-16T12:38:41;99785.53;;;15.56;53.44
21728;BME280;11026;50.560;17.852;2024-02-16T12:41:08;99775.84;;;15.98;53.06
21728;BME280;11026;50.560;17.852;2024-02-16T12:43:36;99772.91;;;16.58;52.30
21728;BME280;11026;50.560;17.852;2024-02-16T12:46:03;99768.84;;;16.38;52.03
21728;BME280;11026;50.560;17.852;2024-02-16T12:48:31;99771.75;;;16.35;51.40
21728;BME280;11026;50.560;17.852;2024-02-16T12:50:58;99783.53;;;16.45;51.42
21728;BME280;11026;50.560;17.852;2024-02-16T12:53:26;99781.56;;;16.20;52.25
21728;BME280;11026;50.560;17.852;2024-02-16T12:55:56;99786.78;;;16.92;52.48
21728;BME280;11026;50.560;17.852;2024-02-16T12:58:23;99779.19;;;16.71;50.47
21728;BME280;11026;50.560;17.852;2024-02-16T13:00:50;99777.75;;;16.66;51.23